createdAt,value
2022-09-11T00:03:42.672Z,16.04
2022-09-11T00:08:44.442Z,16.00
2022-09-11T00:13:48.566Z,15.93
2022-09-11T00:18:50.884Z,15.85
2022-09-11T00:23:53.264Z,15.76
2022-09-11T00:28:55.265Z,15.75
2022-09-11T00:33:56.974Z,15.70
2022-09-11T00:38:58.979Z,15.68
2022-09-11T00:44:12.581Z,15.60
2022-09-11T00:49:14.431Z,15.42
2022-09-11T00:54:20.240Z,15.49
2022-09-11T00:59:26.866Z,15.44
2022-09-11T01:04:29.187Z,15.40
2022-09-11T01:09:33.015Z,15.23
2022-09-11T01:14:52.739Z,15.23
2022-09-11T01:20:23.844Z,15.26
2022-09-11T01:25:46.548Z,15.18
2022-09-11T01:30:54.004Z,15.06
2022-09-11T01:35:58.323Z,15.19
2022-09-11T01:41:16.344Z,15.07
2022-09-11T01:46:22.891Z,15.08
2022-09-11T01:51:29.624Z,15.10
2022-09-11T01:56:37.142Z,15.17
2022-09-11T02:01:44.694Z,15.13
2022-09-11T02:06:53.245Z,15.12
2022-09-11T02:11:57.949Z,15.06
2022-09-11T02:17:33.604Z,15.14
2022-09-11T02:22:36.236Z,15.12
2022-09-11T02:27:37.659Z,15.16
2022-09-11T02:32:43.276Z,15.15
2022-09-11T02:38:05.818Z,15.13
2022-09-11T02:43:28.719Z,15.20
2022-09-11T02:48:53.217Z,15.08
2022-09-11T02:54:25.684Z,15.20
2022-09-11T02:59:34.060Z,15.11
2022-09-11T03:04:36.267Z,15.18
2022-09-11T03:09:37.886Z,15.24
2022-09-11T03:14:39.354Z,15.26
2022-09-11T03:19:40.697Z,15.23
2022-09-11T03:24:42.107Z,15.28
2022-09-11T03:29:44.745Z,15.25
2022-09-11T03:34:47.453Z,15.19
2022-09-11T03:39:48.829Z,15.28
2022-09-11T03:44:50.264Z,15.24
2022-09-11T03:49:51.613Z,15.29
2022-09-11T03:54:52.942Z,15.33
2022-09-11T03:59:56.593Z,15.19
2022-09-11T04:04:57.951Z,15.17
2022-09-11T04:09:59.319Z,15.12
2022-09-11T04:15:02.135Z,15.24
2022-09-11T04:20:04.746Z,15.24
2022-09-11T04:25:06.853Z,15.18
2022-09-11T04:30:08.991Z,15.26
2022-09-11T04:35:10.870Z,15.14
2022-09-11T04:40:12.253Z,15.22
2022-09-11T04:45:13.706Z,15.22
2022-09-11T04:50:15.468Z,15.16
2022-09-11T04:55:16.982Z,15.15
2022-09-11T05:00:18.461Z,15.19
2022-09-11T05:05:20.431Z,15.20
2022-09-11T05:10:21.790Z,15.16
2022-09-11T05:15:23.131Z,15.18
2022-09-11T05:20:24.407Z,15.21
2022-09-11T05:25:25.815Z,15.21
2022-09-11T05:30:29.061Z,15.14
2022-09-11T05:35:32.520Z,15.12
2022-09-11T05:40:33.975Z,15.18
2022-09-11T05:45:35.457Z,15.19
2022-09-11T05:50:37.435Z,15.20
2022-09-11T05:55:38.775Z,15.21
2022-09-11T06:00:40.839Z,15.23
2022-09-11T06:05:42.950Z,15.18
2022-09-11T06:10:48.232Z,15.28
2022-09-11T06:15:49.581Z,15.34
2022-09-11T06:21:10.193Z,15.37
2022-09-11T06:26:14.091Z,15.41
2022-09-11T06:31:17.390Z,15.33
2022-09-11T06:36:24.236Z,15.47
2022-09-11T06:41:27.024Z,15.38
2022-09-11T06:46:28.709Z,15.42
2022-09-11T06:51:30.117Z,15.40
2022-09-11T06:56:34.639Z,15.52
2022-09-11T07:01:36.187Z,15.62
2022-09-11T07:06:38.544Z,15.62
2022-09-11T07:11:43.695Z,15.42
2022-09-11T07:16:46.139Z,15.66
2022-09-11T07:21:47.594Z,15.64
2022-09-11T07:26:48.971Z,15.73
2022-09-11T07:31:50.414Z,15.77
2022-09-11T07:36:52.866Z,15.78
2022-09-11T07:41:54.273Z,15.69
2022-09-11T07:46:55.757Z,15.84
2022-09-11T07:51:57.087Z,15.69
2022-09-11T07:56:58.442Z,15.62
2022-09-11T08:01:59.913Z,15.77
2022-09-11T08:07:01.497Z,15.87
2022-09-11T08:12:03.035Z,15.87
2022-09-11T08:17:04.503Z,15.87
2022-09-11T08:22:05.954Z,15.94
2022-09-11T08:27:07.388Z,15.97
2022-09-11T08:32:08.942Z,15.91
2022-09-11T08:37:10.743Z,15.97
2022-09-11T08:42:16.534Z,15.78
2022-09-11T08:47:24.782Z,16.08
2022-09-11T08:52:27.189Z,16.06
2022-09-11T08:57:52.655Z,16.15
2022-09-11T09:03:21.272Z,16.05
2022-09-11T09:08:47.377Z,16.10
2022-09-11T09:14:10.580Z,16.19
2022-09-11T09:19:20.039Z,16.21
2022-09-11T09:24:22.557Z,16.31
2022-09-11T09:29:30.436Z,16.41
2022-09-11T09:34:37.981Z,16.46
2022-09-11T09:39:39.962Z,16.54
2022-09-11T09:44:50.470Z,16.57
2022-09-11T09:49:52.556Z,16.69
2022-09-11T09:55:01.292Z,16.71
2022-09-11T10:00:07.522Z,16.74
2022-09-11T10:05:41.428Z,16.72
2022-09-11T10:10:42.859Z,16.73
2022-09-11T10:15:44.814Z,16.79
2022-09-11T10:20:46.264Z,16.90
2022-09-11T10:25:49.800Z,16.96
2022-09-11T10:30:59.254Z,16.99
2022-09-11T10:36:05.263Z,17.03
2022-09-11T10:41:21.480Z,17.16
2022-09-11T10:46:24.781Z,17.33
2022-09-11T10:51:29.830Z,17.27
2022-09-11T10:56:36.099Z,17.38
2022-09-11T11:01:37.617Z,17.36
2022-09-11T11:06:45.290Z,17.39
2022-09-11T11:12:23.914Z,17.48
2022-09-11T11:17:55.822Z,17.47
2022-09-11T11:23:05.449Z,17.58
2022-09-11T11:28:26.107Z,17.59
2022-09-11T11:33:39.605Z,17.63
2022-09-11T11:39:13.098Z,17.71
2022-09-11T11:44:21.646Z,17.74
2022-09-11T11:49:33.955Z,17.85
2022-09-11T11:54:52.277Z,18.00
2022-09-11T11:59:53.554Z,18.12
2022-09-11T12:05:03.238Z,18.15
2022-09-11T12:10:07.226Z,18.05
2022-09-11T12:15:17.680Z,18.00
2022-09-11T12:20:34.814Z,18.05
2022-09-11T12:25:36.330Z,18.15
2022-09-11T12:31:14.223Z,18.20
2022-09-11T12:36:42.626Z,18.34
2022-09-11T12:41:45.786Z,18.27
2022-09-11T12:46:47.095Z,18.30
2022-09-11T12:51:58.402Z,18.29
2022-09-11T12:57:04.477Z,18.38
2022-09-11T13:02:28.500Z,18.37
2022-09-11T13:07:42.969Z,18.43
2022-09-11T13:12:55.071Z,18.44
2022-09-11T13:17:56.394Z,18.39
2022-09-11T13:23:18.284Z,18.42
2022-09-11T13:28:24.296Z,18.43
2022-09-11T13:33:29.774Z,18.50
2022-09-11T13:38:36.475Z,18.50
2022-09-11T13:43:44.236Z,18.44
2022-09-11T13:48:49.209Z,18.54
2022-09-11T13:54:05.664Z,18.52
2022-09-11T13:59:25.710Z,18.70
2022-09-11T14:04:29.230Z,18.66
2022-09-11T14:09:30.700Z,18.70
2022-09-11T14:14:33.082Z,18.65
2022-09-11T14:19:36.643Z,18.71
2022-09-11T14:24:38.347Z,18.82
2022-09-11T14:29:40.903Z,18.88
2022-09-11T14:34:42.244Z,18.86
2022-09-11T14:39:47.703Z,18.80
2022-09-11T14:44:49.184Z,18.94
2022-09-11T14:49:53.255Z,19.00
2022-09-11T14:54:56.467Z,19.00
2022-09-11T14:59:59.421Z,18.97
2022-09-11T15:05:00.775Z,18.89
2022-09-11T15:10:02.211Z,18.99
2022-09-11T15:15:04.558Z,19.04
2022-09-11T15:20:09.078Z,19.13
2022-09-11T15:25:11.146Z,19.01
2022-09-11T15:30:12.740Z,19.20
2022-09-11T15:35:18.266Z,19.24
2022-09-11T15:40:20.139Z,19.26
2022-09-11T15:45:21.537Z,19.36
2022-09-11T15:50:28.200Z,19.34
2022-09-11T15:55:30.079Z,19.25
2022-09-11T16:00:31.449Z,19.30
2022-09-11T16:05:38.470Z,19.26
2022-09-11T16:10:39.837Z,19.26
2022-09-11T16:15:41.247Z,19.19
2022-09-11T16:20:43.807Z,19.28
2022-09-11T16:25:45.236Z,19.22
2022-09-11T16:30:51.459Z,19.32
2022-09-11T16:36:01.552Z,19.34
2022-09-11T16:41:07.493Z,19.32
2022-09-11T16:46:09.128Z,19.27
2022-09-11T16:51:12.865Z,19.31
2022-09-11T16:56:20.585Z,19.10
2022-09-11T17:01:25.659Z,19.38
2022-09-11T17:06:29.874Z,19.30
2022-09-11T17:11:32.989Z,19.29
2022-09-11T17:16:35.607Z,19.17
2022-09-11T17:21:37.895Z,19.16
2022-09-11T17:26:39.260Z,19.13
2022-09-11T17:31:40.775Z,19.11
2022-09-11T17:36:43.197Z,19.02
2022-09-11T17:41:44.712Z,18.98
2022-09-11T17:46:46.217Z,18.86
2022-09-11T17:51:48.955Z,18.92
2022-09-11T17:56:51.199Z,18.87
2022-09-11T18:01:53.277Z,18.79
2022-09-11T18:06:55.037Z,18.61
2022-09-11T18:11:56.413Z,18.52
2022-09-11T18:16:58.194Z,18.43
2022-09-11T18:21:59.869Z,18.32
2022-09-11T18:27:01.532Z,18.22
2022-09-11T18:32:03.448Z,18.13
2022-09-11T18:37:05.174Z,18.00
2022-09-11T18:42:07.367Z,17.88
2022-09-11T18:47:08.726Z,17.88
2022-09-11T18:52:10.721Z,17.75
2022-09-11T18:57:12.083Z,17.69
2022-09-11T19:02:13.663Z,17.50
2022-09-11T19:07:15.803Z,17.23
2022-09-11T19:12:17.281Z,17.23
2022-09-11T19:17:18.726Z,17.09
2022-09-11T19:22:22.739Z,17.22
2022-09-11T19:27:26.082Z,17.03
2022-09-11T19:32:28.059Z,16.96
2022-09-11T19:37:29.553Z,16.84
2022-09-11T19:42:30.931Z,16.69
2022-09-11T19:47:33.200Z,16.74
2022-09-11T19:52:35.015Z,16.84
2022-09-11T19:57:36.680Z,16.74
2022-09-11T20:02:40.338Z,16.71
2022-09-11T20:07:41.823Z,16.60
2022-09-11T20:12:43.234Z,16.49
2022-09-11T20:17:44.751Z,16.41
2022-09-11T20:22:46.278Z,16.34
2022-09-11T20:27:47.823Z,16.21
2022-09-11T20:32:49.225Z,16.16
2022-09-11T20:37:52.340Z,16.09
2022-09-11T20:42:53.682Z,16.07
2022-09-11T20:47:55.047Z,16.05
2022-09-11T20:52:57.052Z,15.88
2022-09-11T20:58:00.610Z,15.93
2022-09-11T21:03:02.192Z,15.89
2022-09-11T21:08:04.067Z,15.83
2022-09-11T21:13:05.543Z,15.70
2022-09-11T21:18:06.934Z,15.66
2022-09-11T21:23:08.604Z,15.58
2022-09-11T21:28:10.013Z,15.49
2022-09-11T21:33:11.410Z,15.40
2022-09-11T21:38:12.743Z,15.34
2022-09-11T21:43:14.184Z,15.40
2022-09-11T21:48:15.522Z,15.32
2022-09-11T21:53:16.961Z,15.15
2022-09-11T21:58:20.506Z,15.17
2022-09-11T22:03:22.091Z,15.10
2022-09-11T22:08:24.254Z,15.16
2022-09-11T22:13:25.602Z,15.22
2022-09-11T22:18:26.916Z,15.04
2022-09-11T22:23:30.086Z,15.02
2022-09-11T22:28:31.551Z,14.96
2022-09-11T22:33:33.154Z,14.90
2022-09-11T22:38:34.546Z,14.85
2022-09-11T22:43:36.589Z,14.85
2022-09-11T22:48:38.109Z,14.84
2022-09-11T22:53:39.709Z,14.75
2022-09-11T22:58:41.278Z,14.75
2022-09-11T23:03:42.727Z,14.64
2022-09-11T23:08:45.961Z,14.66
2022-09-11T23:13:48.429Z,14.64
2022-09-11T23:18:57.785Z,14.58
2022-09-11T23:24:00.238Z,14.52
2022-09-11T23:29:01.789Z,14.46
2022-09-11T23:34:06.362Z,14.42
2022-09-11T23:39:07.726Z,14.27
2022-09-11T23:44:09.075Z,14.32
2022-09-11T23:49:11.871Z,14.20
2022-09-11T23:54:13.220Z,14.20
2022-09-11T23:59:14.480Z,14.22
